Main page
METAR-TAF:

METAR-TAF

Airports :

Nouméa Magenta Airport

Nouméa, New Caledonia

latitude: 22-15-30S, longitude: 166-28-22E, elevation: 3 m

METAR: missing

Time: 00:46 (13:46 UTC)

Forecast

The report was made 2 hours and 46 minutes ago, at 11:00 UTC
Forecast valid from 22 at 12 UTC to 23 at 12 UTC
Wind 10 kt from the East
Visibility 10 km or more
Few clouds at a height of 4500 ft
Becoming
from 22 at 22 UTC to 22 at 24 UTC
Wind 20 kt from the Southeast
Becoming
from 23 at 07 UTC to 23 at 09 UTC
Wind 10 kt from the East

TAF: NWWM 221100Z 2212/2312 08010KT 9999 FEW045 BECMG 2222/2224 13020KT BECMG 2307/2309 08010KT

Weather observations and forecasts of more than 4000 airports (METAR and TAF reports).

The available stations are represented by yellow and red dots on the map.

Hover mouse over dot to see the name of the station.

Then click to see weather observations and forecasts.

To change the map : click on the green buttons with a black cross to zoom in, on the green button with a dash to zoom out, or on the green arrows for adjacent maps.


METAR-TAF: